sensor_id;sensor_type;location;lat;lon;timestamp;P1;durP1;ratioP1;P2;durP2;ratioP2
26864;SDS011;40618;51.166;10.322;2022-12-05T00:01:21;34.92;;;11.93;;
26864;SDS011;40618;51.166;10.322;2022-12-05T00:03:54;21.20;;;10.95;;
26864;SDS011;40618;51.166;10.322;2022-12-05T00:06:24;20.45;;;10.30;;
26864;SDS011;40618;51.166;10.322;2022-12-05T00:08:51;38.47;;;12.50;;
26864;SDS011;40618;51.166;10.322;2022-12-05T00:11:19;23.60;;;12.00;;
26864;SDS011;40618;51.166;10.322;2022-12-05T00:13:48;22.85;;;11.93;;
26864;SDS011;40618;51.166;10.322;2022-12-05T00:16:17;23.48;;;11.35;;
26864;SDS011;40618;51.166;10.322;2022-12-05T00:18:45;29.73;;;11.95;;
26864;SDS011;40618;51.166;10.322;2022-12-05T00:21:12;22.92;;;11.10;;
26864;SDS011;40618;51.166;10.322;2022-12-05T00:23:42;20.30;;;10.98;;
26864;SDS011;40618;51.166;10.322;2022-12-05T00:26:08;20.73;;;10.32;;
26864;SDS011;40618;51.166;10.322;2022-12-05T00:28:34;21.80;;;10.82;;
26864;SDS011;40618;51.166;10.322;2022-12-05T00:31:03;21.33;;;10.82;;
26864;SDS011;40618;51.166;10.322;2022-12-05T00:33:35;30.42;;;11.65;;
26864;SDS011;40618;51.166;10.322;2022-12-05T00:36:06;31.65;;;10.63;;
26864;SDS011;40618;51.166;10.322;2022-12-05T00:38:37;30.73;;;11.50;;
26864;SDS011;40618;51.166;10.322;2022-12-05T00:41:07;17.50;;;9.65;;
26864;SDS011;40618;51.166;10.322;2022-12-05T00:43:35;25.40;;;11.07;;
26864;SDS011;40618;51.166;10.322;2022-12-05T00:46:11;25.80;;;10.93;;
26864;SDS011;40618;51.166;10.322;2022-12-05T00:48:40;21.48;;;10.38;;
26864;SDS011;40618;51.166;10.322;2022-12-05T00:51:16;30.00;;;10.93;;
26864;SDS011;40618;51.166;10.322;2022-12-05T00:53:48;21.60;;;10.55;;
26864;SDS011;40618;51.166;10.322;2022-12-05T00:56:15;24.17;;;11.38;;
26864;SDS011;40618;51.166;10.322;2022-12-05T00:58:44;21.98;;;9.98;;
26864;SDS011;40618;51.166;10.322;2022-12-05T01:03:39;24.67;;;10.82;;
26864;SDS011;40618;51.166;10.322;2022-12-05T01:06:05;22.02;;;11.00;;
26864;SDS011;40618;51.166;10.322;2022-12-05T01:08:32;22.00;;;9.88;;
26864;SDS011;40618;51.166;10.322;2022-12-05T01:10:59;26.73;;;10.70;;
26864;SDS011;40618;51.166;10.322;2022-12-05T01:13:26;28.17;;;11.18;;
26864;SDS011;40618;51.166;10.322;2022-12-05T01:15:53;20.33;;;10.73;;
26864;SDS011;40618;51.166;10.322;2022-12-05T01:18:20;27.08;;;11.40;;
26864;SDS011;40618;51.166;10.322;2022-12-05T01:20:47;30.30;;;11.45;;
26864;SDS011;40618;51.166;10.322;2022-12-05T01:23:14;34.13;;;11.32;;
26864;SDS011;40618;51.166;10.322;2022-12-05T01:25:41;23.10;;;11.48;;
26864;SDS011;40618;51.166;10.322;2022-12-05T01:28:09;37.72;;;11.55;;
26864;SDS011;40618;51.166;10.322;2022-12-05T01:30:39;31.13;;;11.75;;
26864;SDS011;40618;51.166;10.322;2022-12-05T01:33:08;37.55;;;11.57;;
26864;SDS011;40618;51.166;10.322;2022-12-05T01:35:35;28.58;;;10.95;;
26864;SDS011;40618;51.166;10.322;2022-12-05T01:38:04;22.75;;;10.93;;
26864;SDS011;40618;51.166;10.322;2022-12-05T01:40:30;26.00;;;11.07;;
26864;SDS011;40618;51.166;10.322;2022-12-05T01:42:59;27.23;;;11.25;;
26864;SDS011;40618;51.166;10.322;2022-12-05T01:48:03;32.97;;;10.82;;
26864;SDS011;40618;51.166;10.322;2022-12-05T01:50:36;26.35;;;11.00;;
26864;SDS011;40618;51.166;10.322;2022-12-05T01:53:02;48.45;;;12.20;;
26864;SDS011;40618;51.166;10.322;2022-12-05T01:55:29;24.73;;;11.25;;
26864;SDS011;40618;51.166;10.322;2022-12-05T01:57:55;32.35;;;11.68;;
26864;SDS011;40618;51.166;10.322;2022-12-05T02:00:22;27.08;;;10.70;;
26864;SDS011;40618;51.166;10.322;2022-12-05T02:02:49;27.73;;;10.57;;
26864;SDS011;40618;51.166;10.322;2022-12-05T02:05:23;21.17;;;10.07;;
26864;SDS011;40618;51.166;10.322;2022-12-05T02:07:55;21.35;;;10.32;;
26864;SDS011;40618;51.166;10.322;2022-12-05T02:10:25;12.30;;;7.28;;
26864;SDS011;40618;51.166;10.322;2022-12-05T02:12:54;23.10;;;9.77;;
26864;SDS011;40618;51.166;10.322;2022-12-05T02:15:50;18.02;;;9.25;;
26864;SDS011;40618;51.166;10.322;2022-12-05T02:18:35;19.10;;;9.60;;
26864;SDS011;40618;51.166;10.322;2022-12-05T02:24:44;18.05;;;9.48;;
26864;SDS011;40618;51.166;10.322;2022-12-05T02:30:17;19.10;;;9.55;;
26864;SDS011;40618;51.166;10.322;2022-12-05T02:33:09;18.52;;;9.40;;
26864;SDS011;40618;51.166;10.322;2022-12-05T02:36:06;15.40;;;8.27;;
26864;SDS011;40618;51.166;10.322;2022-12-05T02:44:58;12.27;;;7.35;;
26864;SDS011;40618;51.166;10.322;2022-12-05T02:47:32;12.25;;;7.22;;
26864;SDS011;40618;51.166;10.322;2022-12-05T02:50:06;13.30;;;7.70;;
26864;SDS011;40618;51.166;10.322;2022-12-05T02:52:37;11.10;;;6.72;;
26864;SDS011;40618;51.166;10.322;2022-12-05T02:55:06;11.35;;;7.10;;
26864;SDS011;40618;51.166;10.322;2022-12-05T02:57:33;13.65;;;7.05;;
26864;SDS011;40618;51.166;10.322;2022-12-05T03:00:00;12.02;;;6.90;;
26864;SDS011;40618;51.166;10.322;2022-12-05T03:02:30;9.88;;;6.10;;
26864;SDS011;40618;51.166;10.322;2022-12-05T03:07:43;10.35;;;6.13;;
26864;SDS011;40618;51.166;10.322;2022-12-05T03:10:13;10.85;;;5.95;;
26864;SDS011;40618;51.166;10.322;2022-12-05T03:12:43;9.18;;;5.70;;
26864;SDS011;40618;51.166;10.322;2022-12-05T03:15:26;9.75;;;5.85;;
26864;SDS011;40618;51.166;10.322;2022-12-05T03:17:59;8.23;;;5.35;;
26864;SDS011;40618;51.166;10.322;2022-12-05T03:20:52;10.38;;;5.97;;
26864;SDS011;40618;51.166;10.322;2022-12-05T03:23:33;8.50;;;5.45;;
26864;SDS011;40618;51.166;10.322;2022-12-05T03:26:13;8.48;;;5.72;;
26864;SDS011;40618;51.166;10.322;2022-12-05T03:32:33;11.32;;;6.32;;
26864;SDS011;40618;51.166;10.322;2022-12-05T03:35:08;9.40;;;5.72;;
26864;SDS011;40618;51.166;10.322;2022-12-05T03:37:49;10.57;;;6.22;;
26864;SDS011;40618;51.166;10.322;2022-12-05T03:52:00;11.77;;;6.75;;
26864;SDS011;40618;51.166;10.322;2022-12-05T03:54:30;11.63;;;6.00;;
26864;SDS011;40618;51.166;10.322;2022-12-05T03:57:02;10.43;;;6.40;;
26864;SDS011;40618;51.166;10.322;2022-12-05T04:00:03;13.73;;;6.72;;
26864;SDS011;40618;51.166;10.322;2022-12-05T04:05:22;12.27;;;6.55;;
26864;SDS011;40618;51.166;10.322;2022-12-05T04:08:05;10.70;;;6.22;;
26864;SDS011;40618;51.166;10.322;2022-12-05T04:11:00;9.23;;;6.28;;
26864;SDS011;40618;51.166;10.322;2022-12-05T04:13:35;14.15;;;7.50;;
26864;SDS011;40618;51.166;10.322;2022-12-05T04:16:17;78.55;;;44.33;;
26864;SDS011;40618;51.166;10.322;2022-12-05T04:19:09;38.85;;;22.95;;
26864;SDS011;40618;51.166;10.322;2022-12-05T04:22:20;19.38;;;11.40;;
26864;SDS011;40618;51.166;10.322;2022-12-05T04:24:49;12.70;;;8.18;;
26864;SDS011;40618;51.166;10.322;2022-12-05T04:27:39;11.43;;;6.75;;
26864;SDS011;40618;51.166;10.322;2022-12-05T04:30:55;14.95;;;7.88;;
26864;SDS011;40618;51.166;10.322;2022-12-05T04:33:46;19.48;;;9.00;;
26864;SDS011;40618;51.166;10.322;2022-12-05T04:36:37;20.98;;;9.60;;
26864;SDS011;40618;51.166;10.322;2022-12-05T04:41:59;10.07;;;6.10;;
26864;SDS011;40618;51.166;10.322;2022-12-05T04:44:33;10.85;;;6.50;;
26864;SDS011;40618;51.166;10.322;2022-12-05T04:47:07;9.57;;;5.65;;
26864;SDS011;40618;51.166;10.322;2022-12-05T04:49:38;9.15;;;6.43;;
26864;SDS011;40618;51.166;10.322;2022-12-05T04:52:08;11.85;;;7.03;;
26864;SDS011;40618;51.166;10.322;2022-12-05T04:54:40;9.88;;;6.43;;
26864;SDS011;40618;51.166;10.322;2022-12-05T04:57:15;12.15;;;6.22;;
26864;SDS011;40618;51.166;10.322;2022-12-05T04:59:48;9.82;;;6.65;;
26864;SDS011;40618;51.166;10.322;2022-12-05T05:02:16;8.77;;;6.05;;
26864;SDS011;40618;51.166;10.322;2022-12-05T05:04:51;11.07;;;7.15;;
26864;SDS011;40618;51.166;10.322;2022-12-05T05:07:21;10.25;;;6.20;;
26864;SDS011;40618;51.166;10.322;2022-12-05T05:09:47;10.50;;;6.00;;
26864;SDS011;40618;51.166;10.322;2022-12-05T05:12:13;11.60;;;7.13;;
26864;SDS011;40618;51.166;10.322;2022-12-05T05:14:39;10.70;;;7.00;;
26864;SDS011;40618;51.166;10.322;2022-12-05T05:17:05;10.15;;;6.82;;
26864;SDS011;40618;51.166;10.322;2022-12-05T05:19:30;9.05;;;5.90;;
26864;SDS011;40618;51.166;10.322;2022-12-05T05:21:56;9.07;;;6.28;;
26864;SDS011;40618;51.166;10.322;2022-12-05T05:24:22;10.65;;;7.15;;
26864;SDS011;40618;51.166;10.322;2022-12-05T05:26:47;9.73;;;6.57;;
26864;SDS011;40618;51.166;10.322;2022-12-05T05:29:13;11.48;;;6.65;;
26864;SDS011;40618;51.166;10.322;2022-12-05T05:31:40;9.68;;;6.15;;
26864;SDS011;40618;51.166;10.322;2022-12-05T05:34:07;11.02;;;7.65;;
26864;SDS011;40618;51.166;10.322;2022-12-05T05:36:33;10.93;;;6.38;;
26864;SDS011;40618;51.166;10.322;2022-12-05T05:39:00;12.07;;;7.25;;
26864;SDS011;40618;51.166;10.322;2022-12-05T05:41:28;9.68;;;6.22;;
26864;SDS011;40618;51.166;10.322;2022-12-05T05:43:59;11.23;;;6.10;;
26864;SDS011;40618;51.166;10.322;2022-12-05T05:46:30;10.50;;;6.45;;
26864;SDS011;40618;51.166;10.322;2022-12-05T05:48:58;9.27;;;6.20;;
26864;SDS011;40618;51.166;10.322;2022-12-05T05:51:24;10.18;;;6.80;;
26864;SDS011;40618;51.166;10.322;2022-12-05T05:53:51;8.60;;;5.93;;
26864;SDS011;40618;51.166;10.322;2022-12-05T05:56:18;7.88;;;5.82;;
26864;SDS011;40618;51.166;10.322;2022-12-05T05:58:45;9.10;;;6.13;;
26864;SDS011;40618;51.166;10.322;2022-12-05T06:01:12;8.75;;;5.53;;
26864;SDS011;40618;51.166;10.322;2022-12-05T06:03:41;8.85;;;6.13;;
26864;SDS011;40618;51.166;10.322;2022-12-05T06:06:08;9.20;;;6.00;;
26864;SDS011;40618;51.166;10.322;2022-12-05T06:08:37;8.95;;;5.75;;
26864;SDS011;40618;51.166;10.322;2022-12-05T06:11:06;8.88;;;5.57;;
26864;SDS011;40618;51.166;10.322;2022-12-05T06:13:34;8.65;;;6.18;;
26864;SDS011;40618;51.166;10.322;2022-12-05T06:16:00;11.07;;;7.03;;
26864;SDS011;40618;51.166;10.322;2022-12-05T06:18:26;19.00;;;10.52;;
26864;SDS011;40618;51.166;10.322;2022-12-05T06:20:52;17.20;;;9.23;;
26864;SDS011;40618;51.166;10.322;2022-12-05T06:23:20;12.25;;;7.13;;
26864;SDS011;40618;51.166;10.322;2022-12-05T06:25:50;10.35;;;6.38;;
26864;SDS011;40618;51.166;10.322;2022-12-05T06:28:18;10.93;;;6.15;;
26864;SDS011;40618;51.166;10.322;2022-12-05T06:30:48;9.50;;;5.45;;
26864;SDS011;40618;51.166;10.322;2022-12-05T06:33:13;10.35;;;5.93;;
26864;SDS011;40618;51.166;10.322;2022-12-05T06:35:40;9.35;;;5.63;;
26864;SDS011;40618;51.166;10.322;2022-12-05T06:38:07;9.18;;;5.70;;
26864;SDS011;40618;51.166;10.322;2022-12-05T06:40:33;8.85;;;6.10;;
26864;SDS011;40618;51.166;10.322;2022-12-05T06:42:59;8.50;;;5.97;;
26864;SDS011;40618;51.166;10.322;2022-12-05T06:45:25;9.07;;;5.68;;
26864;SDS011;40618;51.166;10.322;2022-12-05T06:47:51;9.10;;;5.90;;
26864;SDS011;40618;51.166;10.322;2022-12-05T06:50:17;9.68;;;5.85;;
26864;SDS011;40618;51.166;10.322;2022-12-05T06:52:43;9.85;;;6.22;;
26864;SDS011;40618;51.166;10.322;2022-12-05T06:55:09;9.02;;;5.68;;
26864;SDS011;40618;51.166;10.322;2022-12-05T06:57:35;8.05;;;5.38;;
26864;SDS011;40618;51.166;10.322;2022-12-05T07:00:01;11.20;;;6.07;;
26864;SDS011;40618;51.166;10.322;2022-12-05T07:02:51;8.55;;;5.78;;
26864;SDS011;40618;51.166;10.322;2022-12-05T07:05:17;8.25;;;5.13;;
26864;SDS011;40618;51.166;10.322;2022-12-05T07:07:43;8.02;;;4.93;;
26864;SDS011;40618;51.166;10.322;2022-12-05T07:10:17;8.90;;;5.60;;
26864;SDS011;40618;51.166;10.322;2022-12-05T07:12:43;12.52;;;7.03;;
26864;SDS011;40618;51.166;10.322;2022-12-05T07:15:08;10.07;;;6.30;;
26864;SDS011;40618;51.166;10.322;2022-12-05T07:17:35;13.52;;;7.35;;
26864;SDS011;40618;51.166;10.322;2022-12-05T07:20:03;13.65;;;6.55;;
26864;SDS011;40618;51.166;10.322;2022-12-05T07:22:30;9.02;;;5.80;;
26864;SDS011;40618;51.166;10.322;2022-12-05T07:24:59;10.55;;;6.20;;
26864;SDS011;40618;51.166;10.322;2022-12-05T07:27:25;9.50;;;6.15;;
26864;SDS011;40618;51.166;10.322;2022-12-05T07:29:50;10.85;;;6.85;;
26864;SDS011;40618;51.166;10.322;2022-12-05T07:32:16;9.32;;;6.45;;
26864;SDS011;40618;51.166;10.322;2022-12-05T07:34:42;9.63;;;5.88;;
26864;SDS011;40618;51.166;10.322;2022-12-05T07:37:07;12.80;;;6.57;;
26864;SDS011;40618;51.166;10.322;2022-12-05T07:39:33;9.52;;;6.70;;
26864;SDS011;40618;51.166;10.322;2022-12-05T07:41:58;10.88;;;6.63;;
26864;SDS011;40618;51.166;10.322;2022-12-05T07:44:24;10.82;;;6.35;;
26864;SDS011;40618;51.166;10.322;2022-12-05T07:46:50;34.50;;;16.90;;
26864;SDS011;40618;51.166;10.322;2022-12-05T07:49:15;16.95;;;10.48;;
26864;SDS011;40618;51.166;10.322;2022-12-05T07:51:41;13.90;;;8.93;;
26864;SDS011;40618;51.166;10.322;2022-12-05T07:54:07;12.20;;;7.45;;
26864;SDS011;40618;51.166;10.322;2022-12-05T07:56:32;10.48;;;6.78;;
26864;SDS011;40618;51.166;10.322;2022-12-05T07:58:58;10.23;;;6.25;;
26864;SDS011;40618;51.166;10.322;2022-12-05T08:01:24;7.93;;;5.85;;
26864;SDS011;40618;51.166;10.322;2022-12-05T08:03:54;11.57;;;6.60;;
26864;SDS011;40618;51.166;10.322;2022-12-05T08:06:23;7.22;;;4.68;;
26864;SDS011;40618;51.166;10.322;2022-12-05T08:08:52;9.45;;;5.82;;
26864;SDS011;40618;51.166;10.322;2022-12-05T08:11:20;6.60;;;4.65;;
26864;SDS011;40618;51.166;10.322;2022-12-05T08:13:49;8.27;;;5.20;;
26864;SDS011;40618;51.166;10.322;2022-12-05T08:16:16;9.07;;;5.88;;
26864;SDS011;40618;51.166;10.322;2022-12-05T08:18:45;9.20;;;6.07;;
26864;SDS011;40618;51.166;10.322;2022-12-05T08:21:12;10.77;;;7.03;;
26864;SDS011;40618;51.166;10.322;2022-12-05T08:23:41;10.15;;;6.03;;
26864;SDS011;40618;51.166;10.322;2022-12-05T08:26:09;9.80;;;5.90;;
26864;SDS011;40618;51.166;10.322;2022-12-05T08:28:38;8.88;;;5.60;;
26864;SDS011;40618;51.166;10.322;2022-12-05T08:31:06;10.85;;;5.53;;
26864;SDS011;40618;51.166;10.322;2022-12-05T08:36:02;8.50;;;5.25;;
26864;SDS011;40618;51.166;10.322;2022-12-05T08:38:30;11.95;;;5.93;;
26864;SDS011;40618;51.166;10.322;2022-12-05T08:41:04;7.75;;;4.95;;
26864;SDS011;40618;51.166;10.322;2022-12-05T08:43:32;9.18;;;6.00;;
26864;SDS011;40618;51.166;10.322;2022-12-05T08:45:59;12.63;;;8.23;;
26864;SDS011;40618;51.166;10.322;2022-12-05T08:48:25;12.63;;;7.13;;
26864;SDS011;40618;51.166;10.322;2022-12-05T08:50:53;12.40;;;6.50;;
26864;SDS011;40618;51.166;10.322;2022-12-05T08:53:19;10.25;;;6.32;;
26864;SDS011;40618;51.166;10.322;2022-12-05T08:55:45;12.25;;;7.97;;
26864;SDS011;40618;51.166;10.322;2022-12-05T08:58:11;13.45;;;8.85;;
26864;SDS011;40618;51.166;10.322;2022-12-05T09:00:38;11.55;;;7.28;;
26864;SDS011;40618;51.166;10.322;2022-12-05T09:03:04;11.18;;;6.80;;
26864;SDS011;40618;51.166;10.322;2022-12-05T09:05:29;12.02;;;7.20;;
26864;SDS011;40618;51.166;10.322;2022-12-05T09:07:55;11.57;;;6.50;;
26864;SDS011;40618;51.166;10.322;2022-12-05T09:10:23;12.35;;;6.88;;
26864;SDS011;40618;51.166;10.322;2022-12-05T09:12:49;11.02;;;6.20;;
26864;SDS011;40618;51.166;10.322;2022-12-05T09:15:15;10.27;;;7.47;;
26864;SDS011;40618;51.166;10.322;2022-12-05T09:17:42;11.93;;;8.20;;
26864;SDS011;40618;51.166;10.322;2022-12-05T09:20:08;12.85;;;7.75;;
26864;SDS011;40618;51.166;10.322;2022-12-05T09:22:35;16.58;;;10.15;;
26864;SDS011;40618;51.166;10.322;2022-12-05T09:25:01;15.35;;;8.70;;
26864;SDS011;40618;51.166;10.322;2022-12-05T09:27:28;15.52;;;9.10;;
26864;SDS011;40618;51.166;10.322;2022-12-05T09:29:54;17.95;;;11.38;;
26864;SDS011;40618;51.166;10.322;2022-12-05T09:32:19;14.60;;;9.13;;
26864;SDS011;40618;51.166;10.322;2022-12-05T09:34:45;13.07;;;8.15;;
26864;SDS011;40618;51.166;10.322;2022-12-05T09:37:10;14.93;;;9.13;;
26864;SDS011;40618;51.166;10.322;2022-12-05T09:39:36;18.15;;;10.77;;
26864;SDS011;40618;51.166;10.322;2022-12-05T09:42:08;17.55;;;9.52;;
26864;SDS011;40618;51.166;10.322;2022-12-05T09:50:11;26.40;;;16.08;;
26864;SDS011;40618;51.166;10.322;2022-12-05T09:58:53;15.15;;;9.45;;
26864;SDS011;40618;51.166;10.322;2022-12-05T10:07:39;18.42;;;11.85;;
26864;SDS011;40618;51.166;10.322;2022-12-05T10:13:05;18.13;;;11.10;;
26864;SDS011;40618;51.166;10.322;2022-12-05T10:15:51;17.23;;;11.63;;
26864;SDS011;40618;51.166;10.322;2022-12-05T10:18:28;20.73;;;13.35;;
26864;SDS011;40618;51.166;10.322;2022-12-05T10:21:22;23.30;;;12.70;;
26864;SDS011;40618;51.166;10.322;2022-12-05T10:23:58;22.50;;;14.00;;
26864;SDS011;40618;51.166;10.322;2022-12-05T10:26:29;22.40;;;11.52;;
26864;SDS011;40618;51.166;10.322;2022-12-05T10:31:54;18.45;;;10.85;;
26864;SDS011;40618;51.166;10.322;2022-12-05T10:34:32;23.45;;;13.75;;
26864;SDS011;40618;51.166;10.322;2022-12-05T10:37:16;19.13;;;12.02;;
26864;SDS011;40618;51.166;10.322;2022-12-05T10:39:45;20.02;;;13.13;;
26864;SDS011;40618;51.166;10.322;2022-12-05T10:44:49;17.90;;;10.75;;
26864;SDS011;40618;51.166;10.322;2022-12-05T10:47:23;26.10;;;10.30;;
26864;SDS011;40618;51.166;10.322;2022-12-05T10:49:49;18.75;;;11.23;;
26864;SDS011;40618;51.166;10.322;2022-12-05T10:52:17;16.15;;;9.80;;
26864;SDS011;40618;51.166;10.322;2022-12-05T10:54:43;26.38;;;10.07;;
26864;SDS011;40618;51.166;10.322;2022-12-05T10:57:21;18.83;;;11.10;;
26864;SDS011;40618;51.166;10.322;2022-12-05T10:59:51;23.05;;;12.23;;
26864;SDS011;40618;51.166;10.322;2022-12-05T11:02:25;21.83;;;13.88;;
26864;SDS011;40618;51.166;10.322;2022-12-05T11:04:54;28.20;;;16.02;;
26864;SDS011;40618;51.166;10.322;2022-12-05T11:07:23;22.77;;;13.10;;
26864;SDS011;40618;51.166;10.322;2022-12-05T11:09:57;18.92;;;10.75;;
26864;SDS011;40618;51.166;10.322;2022-12-05T11:12:27;18.92;;;10.50;;
26864;SDS011;40618;51.166;10.322;2022-12-05T11:15:03;23.98;;;12.52;;
26864;SDS011;40618;51.166;10.322;2022-12-05T11:17:46;19.85;;;10.77;;
26864;SDS011;40618;51.166;10.322;2022-12-05T11:22:41;18.85;;;10.30;;
26864;SDS011;40618;51.166;10.322;2022-12-05T11:30:54;23.17;;;10.27;;
26864;SDS011;40618;51.166;10.322;2022-12-05T11:33:29;19.85;;;11.30;;
26864;SDS011;40618;51.166;10.322;2022-12-05T11:36:00;31.42;;;16.08;;
26864;SDS011;40618;51.166;10.322;2022-12-05T11:38:37;27.30;;;16.13;;
26864;SDS011;40618;51.166;10.322;2022-12-05T11:46:47;17.35;;;9.98;;
26864;SDS011;40618;51.166;10.322;2022-12-05T11:50:08;15.80;;;10.02;;
26864;SDS011;40618;51.166;10.322;2022-12-05T11:55:57;16.83;;;9.43;;
26864;SDS011;40618;51.166;10.322;2022-12-05T12:18:30;33.17;;;16.35;;
26864;SDS011;40618;51.166;10.322;2022-12-05T12:21:16;23.80;;;13.52;;
26864;SDS011;40618;51.166;10.322;2022-12-05T12:32:22;18.65;;;9.73;;
26864;SDS011;40618;51.166;10.322;2022-12-05T12:35:00;19.90;;;10.02;;
26864;SDS011;40618;51.166;10.322;2022-12-05T12:40:34;19.90;;;9.95;;
26864;SDS011;40618;51.166;10.322;2022-12-05T12:49:07;20.00;;;9.75;;
26864;SDS011;40618;51.166;10.322;2022-12-05T12:51:57;19.08;;;9.65;;
26864;SDS011;40618;51.166;10.322;2022-12-05T12:57:28;22.60;;;12.43;;
26864;SDS011;40618;51.166;10.322;2022-12-05T13:03:26;17.75;;;10.00;;
26864;SDS011;40618;51.166;10.322;2022-12-05T13:09:07;14.40;;;9.35;;
26864;SDS011;40618;51.166;10.322;2022-12-05T13:11:44;18.42;;;9.90;;
26864;SDS011;40618;51.166;10.322;2022-12-05T13:14:14;17.23;;;10.20;;
26864;SDS011;40618;51.166;10.322;2022-12-05T13:16:48;16.98;;;10.65;;
26864;SDS011;40618;51.166;10.322;2022-12-05T13:19:30;17.70;;;10.55;;
26864;SDS011;40618;51.166;10.322;2022-12-05T13:22:09;16.67;;;9.50;;
26864;SDS011;40618;51.166;10.322;2022-12-05T13:24:37;17.88;;;10.60;;
26864;SDS011;40618;51.166;10.322;2022-12-05T13:27:04;15.93;;;9.68;;
26864;SDS011;40618;51.166;10.322;2022-12-05T13:29:39;18.50;;;11.00;;
26864;SDS011;40618;51.166;10.322;2022-12-05T13:32:26;19.45;;;10.48;;
26864;SDS011;40618;51.166;10.322;2022-12-05T13:35:11;16.42;;;9.48;;
26864;SDS011;40618;51.166;10.322;2022-12-05T13:38:03;15.73;;;9.40;;
26864;SDS011;40618;51.166;10.322;2022-12-05T13:40:50;21.17;;;12.65;;
26864;SDS011;40618;51.166;10.322;2022-12-05T13:43:40;16.67;;;10.52;;
26864;SDS011;40618;51.166;10.322;2022-12-05T13:46:32;16.73;;;10.15;;
26864;SDS011;40618;51.166;10.322;2022-12-05T13:49:12;16.95;;;9.57;;
26864;SDS011;40618;51.166;10.322;2022-12-05T13:51:43;16.13;;;9.65;;
26864;SDS011;40618;51.166;10.322;2022-12-05T13:57:37;20.55;;;12.27;;
26864;SDS011;40618;51.166;10.322;2022-12-05T14:07:49;19.10;;;11.55;;
26864;SDS011;40618;51.166;10.322;2022-12-05T14:11:07;17.83;;;10.73;;
26864;SDS011;40618;51.166;10.322;2022-12-05T14:15:39;18.02;;;9.82;;
26864;SDS011;40618;51.166;10.322;2022-12-05T14:18:17;20.88;;;10.10;;
26864;SDS011;40618;51.166;10.322;2022-12-05T14:21:14;24.80;;;12.20;;
26864;SDS011;40618;51.166;10.322;2022-12-05T14:30:18;17.55;;;10.23;;
26864;SDS011;40618;51.166;10.322;2022-12-05T14:32:51;18.95;;;10.35;;
26864;SDS011;40618;51.166;10.322;2022-12-05T14:35:24;21.73;;;12.13;;
26864;SDS011;40618;51.166;10.322;2022-12-05T14:37:57;19.75;;;10.38;;
26864;SDS011;40618;51.166;10.322;2022-12-05T14:40:36;21.67;;;12.63;;
26864;SDS011;40618;51.166;10.322;2022-12-05T14:43:25;23.17;;;14.50;;
26864;SDS011;40618;51.166;10.322;2022-12-05T14:46:00;22.17;;;12.55;;
26864;SDS011;40618;51.166;10.322;2022-12-05T14:48:32;18.50;;;10.13;;
26864;SDS011;40618;51.166;10.322;2022-12-05T14:53:53;16.45;;;7.75;;
26864;SDS011;40618;51.166;10.322;2022-12-05T14:58:57;13.60;;;8.05;;
26864;SDS011;40618;51.166;10.322;2022-12-05T15:01:39;17.75;;;10.40;;
26864;SDS011;40618;51.166;10.322;2022-12-05T15:04:21;16.75;;;9.82;;
26864;SDS011;40618;51.166;10.322;2022-12-05T15:07:11;16.15;;;9.60;;
26864;SDS011;40618;51.166;10.322;2022-12-05T15:12:25;16.25;;;9.20;;
26864;SDS011;40618;51.166;10.322;2022-12-05T15:17:56;14.63;;;9.00;;
26864;SDS011;40618;51.166;10.322;2022-12-05T15:23:36;18.73;;;10.18;;
26864;SDS011;40618;51.166;10.322;2022-12-05T15:26:54;17.00;;;9.60;;
26864;SDS011;40618;51.166;10.322;2022-12-05T15:29:11;19.70;;;10.20;;
26864;SDS011;40618;51.166;10.322;2022-12-05T15:37:20;18.17;;;10.45;;
26864;SDS011;40618;51.166;10.322;2022-12-05T15:39:58;16.38;;;9.80;;
26864;SDS011;40618;51.166;10.322;2022-12-05T15:45:13;16.85;;;9.73;;
26864;SDS011;40618;51.166;10.322;2022-12-05T15:47:52;18.65;;;9.68;;
26864;SDS011;40618;51.166;10.322;2022-12-05T15:50:34;25.67;;;13.45;;
26864;SDS011;40618;51.166;10.322;2022-12-05T15:53:15;19.63;;;10.70;;
26864;SDS011;40618;51.166;10.322;2022-12-05T15:55:50;22.52;;;10.68;;
26864;SDS011;40618;51.166;10.322;2022-12-05T15:58:32;18.92;;;9.77;;
26864;SDS011;40618;51.166;10.322;2022-12-05T16:01:21;21.52;;;10.05;;
26864;SDS011;40618;51.166;10.322;2022-12-05T16:03:51;31.20;;;13.23;;
26864;SDS011;40618;51.166;10.322;2022-12-05T16:06:33;19.58;;;10.93;;
26864;SDS011;40618;51.166;10.322;2022-12-05T16:09:13;19.80;;;10.30;;
26864;SDS011;40618;51.166;10.322;2022-12-05T16:11:50;18.13;;;10.20;;
26864;SDS011;40618;51.166;10.322;2022-12-05T16:14:18;27.63;;;12.25;;
26864;SDS011;40618;51.166;10.322;2022-12-05T16:16:47;16.40;;;9.75;;
26864;SDS011;40618;51.166;10.322;2022-12-05T16:19:18;19.15;;;10.60;;
26864;SDS011;40618;51.166;10.322;2022-12-05T16:22:13;24.40;;;12.50;;
26864;SDS011;40618;51.166;10.322;2022-12-05T16:24:41;29.05;;;13.38;;
26864;SDS011;40618;51.166;10.322;2022-12-05T16:27:20;19.23;;;10.73;;
26864;SDS011;40618;51.166;10.322;2022-12-05T16:30:05;25.77;;;12.10;;
26864;SDS011;40618;51.166;10.322;2022-12-05T16:32:37;37.83;;;15.25;;
26864;SDS011;40618;51.166;10.322;2022-12-05T16:48:38;26.65;;;13.15;;
26864;SDS011;40618;51.166;10.322;2022-12-05T16:53:37;17.15;;;9.30;;
26864;SDS011;40618;51.166;10.322;2022-12-05T16:56:06;14.55;;;8.95;;
26864;SDS011;40618;51.166;10.322;2022-12-05T16:58:39;20.70;;;10.88;;
26864;SDS011;40618;51.166;10.322;2022-12-05T17:01:05;17.50;;;10.05;;
26864;SDS011;40618;51.166;10.322;2022-12-05T17:03:32;16.05;;;9.25;;
26864;SDS011;40618;51.166;10.322;2022-12-05T17:05:59;14.65;;;8.73;;
26864;SDS011;40618;51.166;10.322;2022-12-05T17:08:25;12.38;;;7.82;;
26864;SDS011;40618;51.166;10.322;2022-12-05T17:10:51;19.08;;;11.05;;
26864;SDS011;40618;51.166;10.322;2022-12-05T17:13:18;13.20;;;8.27;;
26864;SDS011;40618;51.166;10.322;2022-12-05T17:15:44;15.13;;;9.02;;
26864;SDS011;40618;51.166;10.322;2022-12-05T17:18:20;18.00;;;9.90;;
26864;SDS011;40618;51.166;10.322;2022-12-05T17:20:53;21.02;;;10.90;;
26864;SDS011;40618;51.166;10.322;2022-12-05T17:23:21;12.57;;;8.30;;
26864;SDS011;40618;51.166;10.322;2022-12-05T17:25:51;14.93;;;8.23;;
26864;SDS011;40618;51.166;10.322;2022-12-05T17:28:19;12.82;;;7.22;;
26864;SDS011;40618;51.166;10.322;2022-12-05T17:30:46;13.10;;;7.65;;
26864;SDS011;40618;51.166;10.322;2022-12-05T17:33:12;14.25;;;9.38;;
26864;SDS011;40618;51.166;10.322;2022-12-05T17:35:40;13.32;;;7.90;;
26864;SDS011;40618;51.166;10.322;2022-12-05T17:38:07;15.50;;;8.13;;
26864;SDS011;40618;51.166;10.322;2022-12-05T17:40:35;13.40;;;8.13;;
26864;SDS011;40618;51.166;10.322;2022-12-05T17:43:02;12.77;;;7.57;;
26864;SDS011;40618;51.166;10.322;2022-12-05T17:45:29;11.80;;;7.70;;
26864;SDS011;40618;51.166;10.322;2022-12-05T17:47:55;12.50;;;8.00;;
26864;SDS011;40618;51.166;10.322;2022-12-05T17:50:21;13.27;;;7.22;;
26864;SDS011;40618;51.166;10.322;2022-12-05T17:52:49;9.82;;;6.65;;
26864;SDS011;40618;51.166;10.322;2022-12-05T17:55:20;9.38;;;5.72;;
26864;SDS011;40618;51.166;10.322;2022-12-05T17:57:49;10.85;;;6.18;;
26864;SDS011;40618;51.166;10.322;2022-12-05T18:00:16;12.68;;;6.82;;